sensor_id;sensor_type;location;lat;lon;timestamp;pressure;altitude;pressure_sealevel;temperature;humidity
78144;BME280;67394;52.522;13.622;2023-06-24T00:02:23;101596.81;;;15.98;100.00
78144;BME280;67394;52.522;13.622;2023-06-24T00:04:50;101598.53;;;15.98;100.00
78144;BME280;67394;52.522;13.622;2023-06-24T00:07:17;101602.00;;;15.98;100.00
78144;BME280;67394;52.522;13.622;2023-06-24T00:09:44;101600.28;;;15.97;100.00
78144;BME280;67394;52.522;13.622;2023-06-24T00:12:11;101608.91;;;15.96;100.00
78144;BME280;67394;52.522;13.622;2023-06-24T00:14:37;101601.13;;;15.96;100.00
78144;BME280;67394;52.522;13.622;2023-06-24T00:17:04;101601.13;;;15.96;100.00
78144;BME280;67394;52.522;13.622;2023-06-24T00:19:31;101601.13;;;15.98;100.00
78144;BME280;67394;52.522;13.622;2023-06-24T00:21:58;101603.72;;;15.99;100.00
78144;BME280;67394;52.522;13.622;2023-06-24T00:24:26;101602.84;;;15.99;100.00
78144;BME280;67394;52.522;13.622;2023-06-24T00:26:55;101599.41;;;15.98;100.00
78144;BME280;67394;52.522;13.622;2023-06-24T00:29:24;101614.06;;;15.96;100.00
78144;BME280;67394;52.522;13.622;2023-06-24T00:31:50;101625.25;;;15.98;100.00
78144;BME280;67394;52.522;13.622;2023-06-24T00:34:17;101625.28;;;15.97;100.00
78144;BME280;67394;52.522;13.622;2023-06-24T00:36:46;101620.97;;;15.97;100.00
78144;BME280;67394;52.522;13.622;2023-06-24T00:39:13;101625.28;;;15.95;100.00
78144;BME280;67394;52.522;13.622;2023-06-24T00:41:40;101619.25;;;15.93;100.00
78144;BME280;67394;52.522;13.622;2023-06-24T00:44:07;101620.97;;;15.93;100.00
78144;BME280;67394;52.522;13.622;2023-06-24T00:46:36;101617.53;;;15.92;100.00
78144;BME280;67394;52.522;13.622;2023-06-24T00:49:03;101615.81;;;15.90;100.00
78144;BME280;67394;52.522;13.622;2023-06-24T00:51:32;101615.00;;;15.86;100.00
78144;BME280;67394;52.522;13.622;2023-06-24T00:53:59;101619.31;;;15.86;100.00
78144;BME280;67394;52.522;13.622;2023-06-24T00:56:34;101613.28;;;15.88;100.00
78144;BME280;67394;52.522;13.622;2023-06-24T00:59:02;101616.66;;;15.93;100.00
78144;BME280;67394;52.522;13.622;2023-06-24T01:01:33;101618.44;;;15.88;100.00
78144;BME280;67394;52.522;13.622;2023-06-24T01:04:04;101615.84;;;15.87;100.00
78144;BME280;67394;52.522;13.622;2023-06-24T01:06:35;101621.91;;;15.84;100.00
78144;BME280;67394;52.522;13.622;2023-06-24T01:09:02;101621.03;;;15.85;100.00
78144;BME280;67394;52.522;13.622;2023-06-24T01:11:29;101622.78;;;15.83;100.00
78144;BME280;67394;52.522;13.622;2023-06-24T01:13:57;101622.75;;;15.86;100.00
78144;BME280;67394;52.522;13.622;2023-06-24T01:16:53;101620.13;;;15.89;100.00
78144;BME280;67394;52.522;13.622;2023-06-24T01:19:54;101616.66;;;15.95;100.00
78144;BME280;67394;52.522;13.622;2023-06-24T01:36:46;101608.97;;;15.83;100.00
78144;BME280;67394;52.522;13.622;2023-06-24T01:39:14;101614.16;;;15.84;100.00
78144;BME280;67394;52.522;13.622;2023-06-24T01:41:53;101610.75;;;15.76;100.00
78144;BME280;67394;52.522;13.622;2023-06-24T01:44:22;101607.31;;;15.74;100.00
78144;BME280;67394;52.522;13.622;2023-06-24T01:46:52;101609.03;;;15.77;100.00
78144;BME280;67394;52.522;13.622;2023-06-24T01:49:23;101604.72;;;15.77;100.00
78144;BME280;67394;52.522;13.622;2023-06-24T01:51:52;101609.91;;;15.74;100.00
78144;BME280;67394;52.522;13.622;2023-06-24T01:54:22;101597.84;;;15.70;100.00
78144;BME280;67394;52.522;13.622;2023-06-24T01:56:52;101603.06;;;15.67;100.00
78144;BME280;67394;52.522;13.622;2023-06-24T01:59:21;101597.91;;;15.64;100.00
78144;BME280;67394;52.522;13.622;2023-06-24T02:01:50;101590.16;;;15.59;100.00
78144;BME280;67394;52.522;13.622;2023-06-24T02:04:18;101598.78;;;15.63;100.00
78144;BME280;67394;52.522;13.622;2023-06-24T02:06:46;101597.91;;;15.58;100.00
78144;BME280;67394;52.522;13.622;2023-06-24T02:09:15;101597.91;;;15.58;100.00
78144;BME280;67394;52.522;13.622;2023-06-24T02:11:43;101603.09;;;15.52;100.00
78144;BME280;67394;52.522;13.622;2023-06-24T02:14:11;101597.97;;;15.46;100.00
78144;BME280;67394;52.522;13.622;2023-06-24T02:16:39;101601.38;;;15.51;100.00
78144;BME280;67394;52.522;13.622;2023-06-24T02:19:11;101606.59;;;15.42;100.00
78144;BME280;67394;52.522;13.622;2023-06-24T02:21:39;101597.13;;;15.39;100.00
78144;BME280;67394;52.522;13.622;2023-06-24T02:24:11;101598.00;;;15.38;100.00
78144;BME280;67394;52.522;13.622;2023-06-24T02:26:40;101594.59;;;15.34;100.00
78144;BME280;67394;52.522;13.622;2023-06-24T02:29:09;101603.22;;;15.35;100.00
78144;BME280;67394;52.522;13.622;2023-06-24T02:31:37;101603.22;;;15.35;100.00
78144;BME280;67394;52.522;13.622;2023-06-24T02:34:04;101601.50;;;15.32;100.00
78144;BME280;67394;52.522;13.622;2023-06-24T02:36:32;101605.78;;;15.32;100.00
78144;BME280;67394;52.522;13.622;2023-06-24T02:38:59;101604.06;;;15.29;100.00
78144;BME280;67394;52.522;13.622;2023-06-24T02:41:26;101602.41;;;15.25;100.00
78144;BME280;67394;52.522;13.622;2023-06-24T02:43:53;101613.53;;;15.32;100.00
78144;BME280;67394;52.522;13.622;2023-06-24T02:46:20;101610.16;;;15.25;100.00
78144;BME280;67394;52.522;13.622;2023-06-24T02:48:48;101607.53;;;15.28;100.00
78144;BME280;67394;52.522;13.622;2023-06-24T02:51:16;101610.97;;;15.27;100.00
78144;BME280;67394;52.522;13.622;2023-06-24T02:53:45;101615.28;;;15.28;100.00
78144;BME280;67394;52.522;13.622;2023-06-24T02:56:13;101622.16;;;15.26;100.00
78144;BME280;67394;52.522;13.622;2023-06-24T02:58:44;101620.47;;;15.24;100.00
78144;BME280;67394;52.522;13.622;2023-06-24T03:01:11;101617.03;;;15.23;100.00
78144;BME280;67394;52.522;13.622;2023-06-24T03:03:41;101616.19;;;15.21;100.00
78144;BME280;67394;52.522;13.622;2023-06-24T03:06:08;101618.75;;;15.21;100.00
78144;BME280;67394;52.522;13.622;2023-06-24T03:08:35;101626.50;;;15.23;100.00
78144;BME280;67394;52.522;13.622;2023-06-24T03:11:02;101629.94;;;15.20;100.00
78144;BME280;67394;52.522;13.622;2023-06-24T03:13:29;101633.41;;;15.16;100.00
78144;BME280;67394;52.522;13.622;2023-06-24T03:15:55;101636.00;;;15.10;100.00
78144;BME280;67394;52.522;13.622;2023-06-24T03:18:22;101633.44;;;15.12;100.00
78144;BME280;67394;52.522;13.622;2023-06-24T03:20:49;101637.72;;;15.11;100.00
78144;BME280;67394;52.522;13.622;2023-06-24T03:23:15;101645.47;;;15.08;100.00
78144;BME280;67394;52.522;13.622;2023-06-24T03:25:42;101643.75;;;15.09;100.00
78144;BME280;67394;52.522;13.622;2023-06-24T03:28:09;101649.78;;;15.06;100.00
78144;BME280;67394;52.522;13.622;2023-06-24T03:30:35;101653.22;;;15.08;100.00
78144;BME280;67394;52.522;13.622;2023-06-24T03:33:02;101658.44;;;15.04;100.00
78144;BME280;67394;52.522;13.622;2023-06-24T03:35:29;101654.94;;;15.06;100.00
78144;BME280;67394;52.522;13.622;2023-06-24T03:37:56;101661.00;;;14.94;100.00
78144;BME280;67394;52.522;13.622;2023-06-24T03:40:23;101651.53;;;14.95;100.00
78144;BME280;67394;52.522;13.622;2023-06-24T03:42:50;101652.44;;;14.89;100.00
78144;BME280;67394;52.522;13.622;2023-06-24T03:45:16;101654.13;;;15.01;100.00
78144;BME280;67394;52.522;13.622;2023-06-24T03:47:43;101650.69;;;14.94;100.00
78144;BME280;67394;52.522;13.622;2023-06-24T03:50:09;101645.50;;;14.96;100.00
78144;BME280;67394;52.522;13.622;2023-06-24T03:52:38;101653.25;;;14.94;100.00
78144;BME280;67394;52.522;13.622;2023-06-24T03:55:04;101655.00;;;14.88;100.00
78144;BME280;67394;52.522;13.622;2023-06-24T03:57:31;101661.91;;;14.93;100.00
78144;BME280;67394;52.522;13.622;2023-06-24T03:59:58;101667.91;;;14.86;100.00
78144;BME280;67394;52.522;13.622;2023-06-24T04:02:25;101667.06;;;14.86;100.00
78144;BME280;67394;52.522;13.622;2023-06-24T04:04:52;101668.78;;;14.85;100.00
78144;BME280;67394;52.522;13.622;2023-06-24T04:07:18;101668.78;;;14.85;100.00
78144;BME280;67394;52.522;13.622;2023-06-24T04:09:45;101660.16;;;14.91;100.00
78144;BME280;67394;52.522;13.622;2023-06-24T04:12:11;101665.31;;;14.94;100.00
78144;BME280;67394;52.522;13.622;2023-06-24T04:14:38;101663.59;;;14.99;100.00
78144;BME280;67394;52.522;13.622;2023-06-24T04:17:05;101663.56;;;15.14;100.00
78144;BME280;67394;52.522;13.622;2023-06-24T04:19:32;101666.97;;;15.19;100.00
78144;BME280;67394;52.522;13.622;2023-06-24T04:21:58;101665.25;;;15.15;100.00
78144;BME280;67394;52.522;13.622;2023-06-24T04:24:25;101667.00;;;15.15;100.00
78144;BME280;67394;52.522;13.622;2023-06-24T04:26:51;101673.00;;;15.18;100.00
78144;BME280;67394;52.522;13.622;2023-06-24T04:29:18;101669.56;;;15.16;100.00
78144;BME280;67394;52.522;13.622;2023-06-24T04:31:45;101673.03;;;15.08;100.00
78144;BME280;67394;52.522;13.622;2023-06-24T04:34:12;101683.34;;;15.05;100.00
78144;BME280;67394;52.522;13.622;2023-06-24T04:36:39;101682.50;;;15.07;100.00
78144;BME280;67394;52.522;13.622;2023-06-24T04:39:05;101673.88;;;15.05;100.00
78144;BME280;67394;52.522;13.622;2023-06-24T04:41:32;101679.09;;;15.04;100.00
78144;BME280;67394;52.522;13.622;2023-06-24T04:43:59;101690.28;;;15.02;100.00
78144;BME280;67394;52.522;13.622;2023-06-24T04:46:26;101688.56;;;15.01;100.00
78144;BME280;67394;52.522;13.622;2023-06-24T04:48:52;101690.28;;;15.01;100.00
78144;BME280;67394;52.522;13.622;2023-06-24T04:51:19;101698.00;;;14.96;100.00
78144;BME280;67394;52.522;13.622;2023-06-24T04:53:46;101703.19;;;14.96;100.00
78144;BME280;67394;52.522;13.622;2023-06-24T04:56:13;101705.75;;;14.98;100.00
78144;BME280;67394;52.522;13.622;2023-06-24T04:58:40;101704.03;;;15.03;100.00
78144;BME280;67394;52.522;13.622;2023-06-24T05:01:06;101708.31;;;15.10;100.00
78144;BME280;67394;52.522;13.622;2023-06-24T05:03:33;101713.53;;;15.04;100.00
78144;BME280;67394;52.522;13.622;2023-06-24T05:06:00;101713.53;;;15.04;100.00
78144;BME280;67394;52.522;13.622;2023-06-24T05:08:27;101708.31;;;15.10;100.00
78144;BME280;67394;52.522;13.622;2023-06-24T05:10:54;101705.72;;;15.16;100.00
78144;BME280;67394;52.522;13.622;2023-06-24T05:13:20;101701.41;;;15.20;100.00
78144;BME280;67394;52.522;13.622;2023-06-24T05:15:47;101700.56;;;15.22;100.00
78144;BME280;67394;52.522;13.622;2023-06-24T05:18:13;101697.94;;;15.31;100.00
78144;BME280;67394;52.522;13.622;2023-06-24T05:20:40;101691.06;;;15.30;100.00
78144;BME280;67394;52.522;13.622;2023-06-24T05:23:07;101694.50;;;15.32;100.00
78144;BME280;67394;52.522;13.622;2023-06-24T05:25:33;101699.63;;;15.37;100.00
78144;BME280;67394;52.522;13.622;2023-06-24T05:28:01;101709.97;;;15.45;100.00
78144;BME280;67394;52.522;13.622;2023-06-24T05:30:27;101712.50;;;15.48;100.00
78144;BME280;67394;52.522;13.622;2023-06-24T05:32:54;101715.09;;;15.49;100.00
78144;BME280;67394;52.522;13.622;2023-06-24T05:35:20;101719.44;;;15.55;100.00
78144;BME280;67394;52.522;13.622;2023-06-24T05:37:47;101715.94;;;15.60;100.00
78144;BME280;67394;52.522;13.622;2023-06-24T05:40:14;101717.63;;;15.73;99.66
78144;BME280;67394;52.522;13.622;2023-06-24T05:42:40;101709.00;;;15.78;99.71
78144;BME280;67394;52.522;13.622;2023-06-24T05:45:07;101709.81;;;15.80;100.00
78144;BME280;67394;52.522;13.622;2023-06-24T05:47:34;101718.44;;;15.88;99.70
78144;BME280;67394;52.522;13.622;2023-06-24T05:50:01;101725.28;;;15.96;98.03
78144;BME280;67394;52.522;13.622;2023-06-24T05:52:27;101722.63;;;16.01;98.92
78144;BME280;67394;52.522;13.622;2023-06-24T05:54:54;101740.72;;;16.07;98.84
78144;BME280;67394;52.522;13.622;2023-06-24T05:57:20;101741.59;;;16.09;98.19
78144;BME280;67394;52.522;13.622;2023-06-24T05:59:47;101741.53;;;16.20;96.66
78144;BME280;67394;52.522;13.622;2023-06-24T06:02:14;101734.56;;;16.25;97.28
78144;BME280;67394;52.522;13.622;2023-06-24T06:04:40;101731.97;;;16.31;96.63
78144;BME280;67394;52.522;13.622;2023-06-24T06:07:07;101737.97;;;16.36;95.22
78144;BME280;67394;52.522;13.622;2023-06-24T06:09:34;101735.34;;;16.39;95.57
78144;BME280;67394;52.522;13.622;2023-06-24T06:12:00;101743.13;;;16.40;95.48
78144;BME280;67394;52.522;13.622;2023-06-24T06:14:27;101740.47;;;16.48;95.07
78144;BME280;67394;52.522;13.622;2023-06-24T06:16:53;101736.94;;;16.55;96.16
78144;BME280;67394;52.522;13.622;2023-06-24T06:19:20;101741.13;;;16.74;93.79
78144;BME280;67394;52.522;13.622;2023-06-24T06:21:46;101732.50;;;16.75;92.34
78144;BME280;67394;52.522;13.622;2023-06-24T06:24:13;101737.72;;;16.71;93.32
78144;BME280;67394;52.522;13.622;2023-06-24T06:26:43;101739.41;;;16.76;94.73
78144;BME280;67394;52.522;13.622;2023-06-24T06:29:11;101741.13;;;16.77;94.67
78144;BME280;67394;52.522;13.622;2023-06-24T06:31:38;101735.94;;;16.77;93.73
78144;BME280;67394;52.522;13.622;2023-06-24T06:34:04;101740.16;;;16.88;93.84
78144;BME280;67394;52.522;13.622;2023-06-24T06:36:31;101735.81;;;16.91;92.55
78144;BME280;67394;52.522;13.622;2023-06-24T06:38:58;101733.13;;;17.03;91.74
78144;BME280;67394;52.522;13.622;2023-06-24T06:41:25;101736.47;;;17.16;94.15
78144;BME280;67394;52.522;13.622;2023-06-24T06:43:52;101729.41;;;17.29;91.70
78144;BME280;67394;52.522;13.622;2023-06-24T06:46:19;101728.47;;;17.37;88.12
78144;BME280;67394;52.522;13.622;2023-06-24T06:48:46;101734.53;;;17.36;90.18
78144;BME280;67394;52.522;13.622;2023-06-24T06:51:13;101733.59;;;17.39;90.72
78144;BME280;67394;52.522;13.622;2023-06-24T06:53:40;101728.38;;;17.43;87.42
78144;BME280;67394;52.522;13.622;2023-06-24T06:56:06;101724.91;;;17.46;88.03
78144;BME280;67394;52.522;13.622;2023-06-24T06:58:33;101726.41;;;17.62;88.35
78144;BME280;67394;52.522;13.622;2023-06-24T07:01:00;101723.91;;;17.58;86.73
78144;BME280;67394;52.522;13.622;2023-06-24T07:03:27;101719.41;;;17.72;89.77
78144;BME280;67394;52.522;13.622;2023-06-24T07:05:54;101725.66;;;17.54;83.82
78144;BME280;67394;52.522;13.622;2023-06-24T07:08:20;101723.03;;;17.57;86.18
78144;BME280;67394;52.522;13.622;2023-06-24T07:10:47;101723.81;;;17.67;86.10
78144;BME280;67394;52.522;13.622;2023-06-24T07:13:13;101722.72;;;17.83;86.04
78144;BME280;67394;52.522;13.622;2023-06-24T07:15:40;101727.75;;;17.95;85.40
78144;BME280;67394;52.522;13.622;2023-06-24T07:18:06;101725.00;;;18.07;86.31
78144;BME280;67394;52.522;13.622;2023-06-24T07:20:33;101715.34;;;18.17;86.20
78144;BME280;67394;52.522;13.622;2023-06-24T07:23:00;101721.50;;;18.10;84.88
78144;BME280;67394;52.522;13.622;2023-06-24T07:25:26;101725.78;;;18.12;84.79
78144;BME280;67394;52.522;13.622;2023-06-24T07:27:53;101732.66;;;18.16;83.93
78144;BME280;67394;52.522;13.622;2023-06-24T07:30:20;101736.81;;;18.28;84.48
78144;BME280;67394;52.522;13.622;2023-06-24T07:32:46;101744.38;;;18.43;83.33
78144;BME280;67394;52.522;13.622;2023-06-24T07:35:13;101751.88;;;18.63;84.30
78144;BME280;67394;52.522;13.622;2023-06-24T07:37:40;101748.72;;;18.43;82.58
78144;BME280;67394;52.522;13.622;2023-06-24T07:40:07;101757.09;;;18.63;83.63
78144;BME280;67394;52.522;13.622;2023-06-24T07:42:34;101759.13;;;18.41;79.76
78144;BME280;67394;52.522;13.622;2023-06-24T07:45:00;101757.28;;;18.48;81.66
78144;BME280;67394;52.522;13.622;2023-06-24T07:47:27;101758.06;;;18.53;80.34
78144;BME280;67394;52.522;13.622;2023-06-24T07:49:54;101752.69;;;18.65;79.51
78144;BME280;67394;52.522;13.622;2023-06-24T07:52:20;101760.22;;;18.82;78.33
78144;BME280;67394;52.522;13.622;2023-06-24T07:54:47;101750.31;;;19.04;78.05
78144;BME280;67394;52.522;13.622;2023-06-24T07:57:13;101761.22;;;19.24;76.30
78144;BME280;67394;52.522;13.622;2023-06-24T07:59:40;101769.97;;;19.18;76.63
78144;BME280;67394;52.522;13.622;2023-06-24T08:02:06;101762.41;;;19.06;77.04
78144;BME280;67394;52.522;13.622;2023-06-24T08:04:33;101768.34;;;19.14;75.44
78144;BME280;67394;52.522;13.622;2023-06-24T08:07:00;101759.75;;;19.08;75.01
78144;BME280;67394;52.522;13.622;2023-06-24T08:09:26;101757.72;;;19.25;73.63
78144;BME280;67394;52.522;13.622;2023-06-24T08:11:53;101757.81;;;19.20;73.80
78144;BME280;67394;52.522;13.622;2023-06-24T08:14:20;101763.03;;;19.19;76.26
78144;BME280;67394;52.522;13.622;2023-06-24T08:16:46;101768.47;;;19.07;76.57
78144;BME280;67394;52.522;13.622;2023-06-24T08:19:13;101762.00;;;18.78;75.71
78144;BME280;67394;52.522;13.622;2023-06-24T08:21:39;101763.47;;;18.94;69.73
78144;BME280;67394;52.522;13.622;2023-06-24T08:24:06;101759.72;;;19.11;68.76
78144;BME280;67394;52.522;13.622;2023-06-24T08:26:33;101755.78;;;19.36;72.96
78144;BME280;67394;52.522;13.622;2023-06-24T08:29:00;101770.50;;;19.38;68.23
78144;BME280;67394;52.522;13.622;2023-06-24T08:31:29;101766.41;;;19.25;66.19
78144;BME280;67394;52.522;13.622;2023-06-24T08:33:59;101776.41;;;19.48;68.43
78144;BME280;67394;52.522;13.622;2023-06-24T08:36:27;101771.56;;;19.71;69.91
78144;BME280;67394;52.522;13.622;2023-06-24T08:38:54;101767.97;;;19.80;69.42
78144;BME280;67394;52.522;13.622;2023-06-24T08:41:22;101762.34;;;19.98;67.66
78144;BME280;67394;52.522;13.622;2023-06-24T08:43:49;101767.09;;;19.80;67.45
78144;BME280;67394;52.522;13.622;2023-06-24T08:46:16;101769.69;;;19.80;67.63
78144;BME280;67394;52.522;13.622;2023-06-24T08:48:43;101768.44;;;19.97;69.12
78144;BME280;67394;52.522;13.622;2023-06-24T08:51:13;101775.72;;;20.22;67.77
78144;BME280;67394;52.522;13.622;2023-06-24T08:53:42;101767.50;;;20.41;67.66
78144;BME280;67394;52.522;13.622;2023-06-24T08:56:09;101770.97;;;20.42;67.32
78144;BME280;67394;52.522;13.622;2023-06-24T08:58:37;101775.81;;;20.56;66.75
78144;BME280;67394;52.522;13.622;2023-06-24T09:01:04;101760.59;;;20.76;62.70
78144;BME280;67394;52.522;13.622;2023-06-24T09:03:32;101762.59;;;20.65;63.59
78144;BME280;67394;52.522;13.622;2023-06-24T09:05:59;101762.72;;;20.94;64.80
78144;BME280;67394;52.522;13.622;2023-06-24T09:08:25;101770.19;;;20.74;65.23
78144;BME280;67394;52.522;13.622;2023-06-24T09:10:54;101775.09;;;20.51;64.84
78144;BME280;67394;52.522;13.622;2023-06-24T09:13:21;101775.03;;;20.54;63.19
78144;BME280;67394;52.522;13.622;2023-06-24T09:15:47;101784.72;;;20.47;60.28
78144;BME280;67394;52.522;13.622;2023-06-24T09:18:14;101769.97;;;20.83;60.85
78144;BME280;67394;52.522;13.622;2023-06-24T09:20:42;101769.09;;;21.16;61.53
78144;BME280;67394;52.522;13.622;2023-06-24T09:23:08;101768.56;;;21.38;63.27
78144;BME280;67394;52.522;13.622;2023-06-24T09:25:35;101767.94;;;21.61;63.65
78144;BME280;67394;52.522;13.622;2023-06-24T09:28:03;101766.66;;;21.43;62.55
78144;BME280;67394;52.522;13.622;2023-06-24T09:30:30;101771.84;;;21.44;61.87
78144;BME280;67394;52.522;13.622;2023-06-24T09:32:56;101771.25;;;21.66;63.00
78144;BME280;67394;52.522;13.622;2023-06-24T09:35:25;101773.84;;;21.66;61.95
78144;BME280;67394;52.522;13.622;2023-06-24T09:37:56;101772.28;;;21.60;59.12
78144;BME280;67394;52.522;13.622;2023-06-24T09:40:23;101772.09;;;21.96;58.74
78144;BME280;67394;52.522;13.622;2023-06-24T09:42:55;101769.75;;;21.86;56.34
78144;BME280;67394;52.522;13.622;2023-06-24T09:45:24;101768.41;;;22.32;58.08
78144;BME280;67394;52.522;13.622;2023-06-24T09:47:52;101768.53;;;22.00;55.07
78144;BME280;67394;52.522;13.622;2023-06-24T09:50:19;101772.31;;;22.19;57.06
78144;BME280;67394;52.522;13.622;2023-06-24T09:52:48;101770.50;;;22.21;58.44
78144;BME280;67394;52.522;13.622;2023-06-24T09:55:17;101771.16;;;22.27;55.24
78144;BME280;67394;52.522;13.622;2023-06-24T09:57:46;101765.47;;;22.43;54.12
78144;BME280;67394;52.522;13.622;2023-06-24T10:00:15;101767.13;;;22.45;53.12
78144;BME280;67394;52.522;13.622;2023-06-24T10:02:43;101761.59;;;22.26;51.86
78144;BME280;67394;52.522;13.622;2023-06-24T10:05:14;101767.44;;;22.62;54.36
78144;BME280;67394;52.522;13.622;2023-06-24T10:07:41;101771.53;;;22.43;52.49
78144;BME280;67394;52.522;13.622;2023-06-24T10:10:08;101765.97;;;22.54;54.77
78144;BME280;67394;52.522;13.622;2023-06-24T10:12:35;101762.47;;;22.55;50.82
78144;BME280;67394;52.522;13.622;2023-06-24T10:15:03;101749.09;;;22.90;52.42
78144;BME280;67394;52.522;13.622;2023-06-24T10:17:31;101754.44;;;23.12;52.04
78144;BME280;67394;52.522;13.622;2023-06-24T10:19:58;101745.78;;;23.35;54.31
78144;BME280;67394;52.522;13.622;2023-06-24T10:22:29;101746.91;;;23.53;52.58
78144;BME280;67394;52.522;13.622;2023-06-24T10:24:59;101754.28;;;22.92;54.19
78144;BME280;67394;52.522;13.622;2023-06-24T10:27:26;101742.53;;;23.04;52.48
78144;BME280;67394;52.522;13.622;2023-06-24T10:29:53;101741.09;;;23.43;55.04
78144;BME280;67394;52.522;13.622;2023-06-24T10:32:22;101742.09;;;23.41;49.90
78144;BME280;67394;52.522;13.622;2023-06-24T10:34:56;101738.34;;;23.48;48.01
78144;BME280;67394;52.522;13.622;2023-06-24T10:37:31;101742.72;;;23.72;49.92
78144;BME280;67394;52.522;13.622;2023-06-24T10:39:58;101749.09;;;24.10;52.13
78144;BME280;67394;52.522;13.622;2023-06-24T10:42:44;101746.50;;;24.32;50.75
78144;BME280;67394;52.522;13.622;2023-06-24T10:45:14;101737.84;;;24.06;48.31
78144;BME280;67394;52.522;13.622;2023-06-24T10:50:11;101731.13;;;23.78;53.27
78144;BME280;67394;52.522;13.622;2023-06-24T10:52:42;101736.88;;;23.87;49.33
78144;BME280;67394;52.522;13.622;2023-06-24T10:55:10;101735.53;;;23.99;50.45
78144;BME280;67394;52.522;13.622;2023-06-24T10:57:37;101735.63;;;24.19;51.37
78144;BME280;67394;52.522;13.622;2023-06-24T11:00:04;101727.25;;;24.09;47.11
78144;BME280;67394;52.522;13.622;2023-06-24T11:02:30;101729.41;;;24.00;47.30
78144;BME280;67394;52.522;13.622;2023-06-24T11:04:59;101736.66;;;24.37;47.49
78144;BME280;67394;52.522;13.622;2023-06-24T11:07:28;101724.63;;;23.88;47.54
78144;BME280;67394;52.522;13.622;2023-06-24T11:09:57;101730.28;;;24.44;47.96
78144;BME280;67394;52.522;13.622;2023-06-24T11:12:33;101721.47;;;24.67;46.70
78144;BME280;67394;52.522;13.622;2023-06-24T11:15:17;101718.69;;;24.70;48.66
78144;BME280;67394;52.522;13.622;2023-06-24T11:17:44;101722.59;;;25.02;48.29
78144;BME280;67394;52.522;13.622;2023-06-24T11:20:14;101721.53;;;25.26;47.63
78144;BME280;67394;52.522;13.622;2023-06-24T11:22:42;101731.19;;;25.44;47.23
78144;BME280;67394;52.522;13.622;2023-06-24T11:25:39;101722.56;;;25.22;44.37
78144;BME280;67394;52.522;13.622;2023-06-24T11:28:20;101722.34;;;25.47;46.36
78144;BME280;67394;52.522;13.622;2023-06-24T11:30:49;101718.53;;;25.15;44.93
78144;BME280;67394;52.522;13.622;2023-06-24T11:33:27;101723.09;;;24.69;42.43
78144;BME280;67394;52.522;13.622;2023-06-24T11:35:54;101713.84;;;25.22;43.65
78144;BME280;67394;52.522;13.622;2023-06-24T11:38:21;101717.84;;;25.30;45.32
78144;BME280;67394;52.522;13.622;2023-06-24T11:40:48;101720.91;;;25.60;45.82
78144;BME280;67394;52.522;13.622;2023-06-24T11:43:15;101708.31;;;25.09;46.71
78144;BME280;67394;52.522;13.622;2023-06-24T11:45:42;101706.75;;;25.24;46.58
78144;BME280;67394;52.522;13.622;2023-06-24T11:48:11;101715.56;;;25.02;46.28
78144;BME280;67394;52.522;13.622;2023-06-24T11:50:37;101709.69;;;25.55;46.37
78144;BME280;67394;52.522;13.622;2023-06-24T11:53:04;101716.69;;;25.17;44.79
78144;BME280;67394;52.522;13.622;2023-06-24T11:55:31;101706.81;;;25.22;45.72
78144;BME280;67394;52.522;13.622;2023-06-24T11:58:00;101709.13;;;25.48;44.77
78144;BME280;67394;52.522;13.622;2023-06-24T12:02:58;101713.94;;;25.78;42.96
78144;BME280;67394;52.522;13.622;2023-06-24T12:05:31;101709.25;;;25.66;43.40
78144;BME280;67394;52.522;13.622;2023-06-24T12:08:01;101714.94;;;25.36;42.24
78144;BME280;67394;52.522;13.622;2023-06-24T12:10:29;101712.69;;;25.08;43.26
78144;BME280;67394;52.522;13.622;2023-06-24T12:12:59;101710.13;;;25.27;42.71
78144;BME280;67394;52.522;13.622;2023-06-24T12:15:27;101707.78;;;25.40;41.93
78144;BME280;67394;52.522;13.622;2023-06-24T12:17:54;101704.16;;;25.63;42.09
78144;BME280;67394;52.522;13.622;2023-06-24T12:20:21;101710.25;;;25.63;42.09
78144;BME280;67394;52.522;13.622;2023-06-24T12:22:48;101702.72;;;25.93;41.27
78144;BME280;67394;52.522;13.622;2023-06-24T12:25:16;101712.09;;;25.80;43.07
78144;BME280;67394;52.522;13.622;2023-06-24T12:27:44;101703.75;;;25.89;41.54
78144;BME280;67394;52.522;13.622;2023-06-24T12:30:11;101699.91;;;25.96;42.06
78144;BME280;67394;52.522;13.622;2023-06-24T12:32:39;101699.13;;;26.13;40.88
78144;BME280;67394;52.522;13.622;2023-06-24T12:35:06;101694.28;;;26.40;42.66
78144;BME280;67394;52.522;13.622;2023-06-24T12:37:36;101691.84;;;26.54;41.72
78144;BME280;67394;52.522;13.622;2023-06-24T12:40:04;101694.53;;;26.87;41.73
78144;BME280;67394;52.522;13.622;2023-06-24T12:42:31;101697.09;;;26.54;39.02
78144;BME280;67394;52.522;13.622;2023-06-24T12:44:58;101698.94;;;26.35;39.18
78144;BME280;67394;52.522;13.622;2023-06-24T12:47:26;101687.81;;;26.47;38.78
78144;BME280;67394;52.522;13.622;2023-06-24T12:49:53;101690.34;;;26.83;41.88
78144;BME280;67394;52.522;13.622;2023-06-24T12:52:19;101694.94;;;26.62;39.30
78144;BME280;67394;52.522;13.622;2023-06-24T12:54:46;101694.91;;;26.09;39.98
78144;BME280;67394;52.522;13.622;2023-06-24T12:57:14;101680.53;;;26.52;40.00
78144;BME280;67394;52.522;13.622;2023-06-24T12:59:41;101682.69;;;26.95;42.21